»·PEaware :: SAS1146 KSAN-KSFO

SAS1146 :: KSAN-KSFO

FLIGHT INFORMATION

Flight Status: Arrived
Operator:
SAS
More flights by this operator :: More flights under this callsign
Pilot: Aleks L. (1619)
Aircraft: AIRBUS A320
(A320)
More flights by this aircraft type
Origin: KSAN San Diego Intl-Lindbergh
United States
Destination: KSFO San Francisco Intl
United States
More flights between these airports :: More routes between these airports
Route: +PEBLE4 SXC VTU RZS J501 BSR BSR2
File this flight plan on PilotEdge
Remarks:
Altitude:
(Current/Filed)
28,000ft
Speed:
(Current/Filed)
480kts
Departed: 09-Sep-14 11:17 AM
Arrived: 09-Sep-14 12:20 PM
Distance/Time
Traveled:
388nm/1:03
Distance/Time
To Go:
Arrived

Flight Plot

Page will automatically refresh every two minutes.

Flight plan parsing failed; only flown route is shown


Map Options




Map Legend


Flown Route
Filed Route
Departure Airport
Arrival Airport
Navaid (VOR, NDB)
Fix

Horizontal Profiles

Position Reports

Time Latitude Longitude Heading Altitude Ground
Speed
09-Sep-14 10:33 32.734154 -117.201764 182 18ft 0kts
09-Sep-14 10:34 32.734154 -117.201764 182 18ft 0kts
09-Sep-14 10:35 32.734154 -117.201764 182 18ft 0kts
09-Sep-14 10:36 32.734154 -117.201764 182 18ft 0kts
09-Sep-14 10:37 32.734154 -117.201764 182 18ft 0kts
09-Sep-14 10:38 32.734154 -117.201764 182 18ft 0kts
09-Sep-14 10:39 32.734154 -117.201764 182 18ft 0kts
09-Sep-14 10:40 32.734154 -117.201764 182 18ft 0kts
09-Sep-14 10:41 32.734154 -117.201764 182 18ft 0kts
09-Sep-14 10:42 32.734154 -117.201764 182 18ft 0kts
09-Sep-14 10:43 32.734154 -117.201764 182 18ft 0kts
09-Sep-14 10:44 32.734154 -117.201764 182 18ft 0kts
09-Sep-14 10:45 32.734154 -117.201764 182 18ft 0kts
09-Sep-14 10:46 32.734154 -117.201764 182 18ft 0kts
09-Sep-14 10:47 32.734154 -117.201764 182 18ft 0kts
09-Sep-14 10:48 32.734154 -117.201764 182 18ft 0kts
09-Sep-14 10:49 32.734154 -117.201764 182 18ft 0kts
09-Sep-14 10:50 32.734154 -117.201764 182 18ft 0kts
09-Sep-14 10:51 32.734154 -117.201764 182 18ft 0kts
09-Sep-14 10:52 32.734154 -117.201764 182 18ft 0kts
09-Sep-14 10:53 32.734154 -117.201764 182 18ft 0kts
09-Sep-14 10:54 32.734154 -117.201764 182 18ft 0kts
09-Sep-14 10:55 32.734154 -117.201764 182 18ft 0kts
09-Sep-14 10:56 32.734154 -117.201764 182 18ft 0kts
09-Sep-14 10:57 32.734154 -117.201764 182 18ft 0kts
09-Sep-14 10:58 32.734154 -117.201764 182 18ft 0kts
09-Sep-14 10:59 32.734154 -117.201764 182 18ft 0kts
09-Sep-14 11:00 32.734154 -117.201764 182 18ft 0kts
09-Sep-14 11:01 32.734154 -117.201764 182 18ft 0kts
09-Sep-14 11:02 32.734154 -117.201764 182 18ft 0kts
09-Sep-14 11:03 32.734154 -117.201764 182 18ft 0kts
09-Sep-14 11:04 32.734154 -117.201764 182 18ft 0kts
09-Sep-14 11:05 32.734154 -117.201764 182 18ft 0kts
09-Sep-14 11:06 32.734154 -117.201764 182 18ft 0kts
09-Sep-14 11:07 32.734049 -117.202048 287 18ft 11kts
09-Sep-14 11:08 32.734688 -117.198618 105 18ft 19kts
09-Sep-14 11:09 32.733460 -117.193558 106 21ft 16kts
09-Sep-14 11:10 32.731899 -117.187111 105 19ft 18kts
09-Sep-14 11:11 32.730769 -117.182438 105 18ft 16kts
09-Sep-14 11:12 32.729529 -117.177383 105 22ft 11kts
09-Sep-14 11:13 32.729472 -117.176928 84 23ft 0kts
09-Sep-14 11:14 32.729472 -117.176928 84 23ft 0kts
09-Sep-14 11:15 32.729529 -117.176610 72 23ft 6kts
09-Sep-14 11:16 32.733516 -117.189472 283 46ft 156kts
09-Sep-14 11:17 32.755112 -117.239763 304 2315ft 229kts
09-Sep-14 11:18 32.795825 -117.310405 302 6264ft 273kts
09-Sep-14 11:19 32.846911 -117.381279 310 10411ft 311kts
09-Sep-14 11:20 32.915296 -117.473629 310 12256ft 406kts
09-Sep-14 11:21 32.990997 -117.576137 310 15009ft 421kts
09-Sep-14 11:22 33.068241 -117.681053 310 15000ft 421kts
09-Sep-14 11:23 33.145970 -117.786935 310 16778ft 429kts
09-Sep-14 11:24 33.208273 -117.907758 288 18928ft 441kts
09-Sep-14 11:25 33.249645 -118.037856 290 20661ft 450kts
09-Sep-14 11:26 33.295597 -118.176745 290 22505ft 456kts
09-Sep-14 11:27 33.342395 -118.319308 289 24251ft 466kts
09-Sep-14 11:28 33.412628 -118.448677 318 26107ft 479kts
09-Sep-14 11:29 33.519976 -118.542952 320 27985ft 475kts
09-Sep-14 11:30 33.627323 -118.634423 320 28000ft 476kts
09-Sep-14 11:31 33.735549 -118.726158 321 28001ft 477kts
09-Sep-14 11:32 33.843061 -118.817399 320 28000ft 471kts
09-Sep-14 11:33 33.932215 -118.893284 320 28000ft 471kts
09-Sep-14 11:34 34.056440 -118.999346 320 28000ft 471kts
09-Sep-14 11:35 34.145933 -119.107363 301 28002ft 459kts
09-Sep-14 11:36 34.205434 -119.213365 300 28002ft 459kts
09-Sep-14 11:37 34.275882 -119.341612 299 28002ft 453kts
09-Sep-14 11:38 34.345284 -119.468548 299 28001ft 453kts
09-Sep-14 11:39 34.414889 -119.596295 299 28001ft 453kts
09-Sep-14 11:40 34.484102 -119.723777 299 28000ft 453kts
09-Sep-14 11:41 34.567707 -119.837268 314 28002ft 461kts
09-Sep-14 11:42 34.663574 -119.940663 313 27999ft 461kts
09-Sep-14 11:43 34.758490 -120.044475 314 27998ft 459kts
09-Sep-14 11:44 34.852910 -120.147738 313 28002ft 458kts
09-Sep-14 11:45 34.947030 -120.251235 313 28002ft 458kts
09-Sep-14 11:46 35.041120 -120.355173 313 28000ft 457kts
09-Sep-14 11:47 35.135178 -120.459417 313 28002ft 457kts
09-Sep-14 11:48 35.229420 -120.564205 313 28001ft 457kts
09-Sep-14 11:49 35.322846 -120.668427 313 28000ft 454kts
09-Sep-14 11:50 35.414736 -120.771273 314 27999ft 453kts
09-Sep-14 11:51 35.507607 -120.875540 313 28001ft 453kts
09-Sep-14 11:52 35.592039 -120.970511 313 27963ft 454kts
09-Sep-14 11:53 35.685082 -121.075631 314 26977ft 456kts
09-Sep-14 11:54 35.778401 -121.180912 315 26011ft 456kts
09-Sep-14 11:55 35.872217 -121.287584 315 25063ft 462kts
09-Sep-14 11:56 35.981890 -121.412770 316 23941ft 459kts
09-Sep-14 11:57 36.059334 -121.501475 316 23134ft 455kts
09-Sep-14 11:58 36.151632 -121.607525 316 22153ft 449kts
09-Sep-14 11:59 36.249344 -121.701480 324 21173ft 444kts
09-Sep-14 12:00 36.349369 -121.788047 324 20180ft 436kts
09-Sep-14 12:01 36.464844 -121.887366 330 19007ft 430kts
09-Sep-14 12:02 36.558467 -121.912482 346 18222ft 429kts
09-Sep-14 12:03 36.672891 -121.944074 345 17252ft 422kts
09-Sep-14 12:04 36.786978 -121.975791 347 15185ft 423kts
09-Sep-14 12:05 36.895400 -122.004108 348 11514ft 389kts
09-Sep-14 12:06 36.993575 -122.029759 348 10443ft 335kts
09-Sep-14 12:07 37.077672 -122.051862 348 9996ft 282kts
09-Sep-14 12:08 37.153783 -122.071855 348 9999ft 279kts
09-Sep-14 12:09 37.229146 -122.091752 348 8854ft 274kts
09-Sep-14 12:10 37.302545 -122.110959 348 7349ft 264kts
09-Sep-14 12:11 37.370293 -122.128802 347 6000ft 235kts
09-Sep-14 12:12 37.432923 -122.145425 347 5786ft 215kts
09-Sep-14 12:13 37.489363 -122.161451 347 4550ft 206kts
09-Sep-14 12:14 37.541062 -122.182022 301 3053ft 192kts
09-Sep-14 12:15 37.561878 -122.239641 300 2042ft 181kts
09-Sep-14 12:16 37.582272 -122.288390 300 1210ft 135kts
09-Sep-14 12:17 37.600023 -122.331131 299 472ft 144kts
09-Sep-14 12:18 37.618654 -122.375116 298 22ft 105kts
09-Sep-14 12:19 37.622141 -122.385545 267 30ft 0kts
09-Sep-14 12:20 37.620725 -122.385512 223 31ft 16kts

Navigation Log

Ident Type
Flight plan parsing failed, navigation log unavailable